sensor_id;sensor_type;location;lat;lon;timestamp;temperature;humidity
22035;DHT22;11181;51.002;4.356;2023-02-22T00:00:25;7.80;99.90
22035;DHT22;11181;51.002;4.356;2023-02-22T00:03:01;7.80;99.90
22035;DHT22;11181;51.002;4.356;2023-02-22T00:05:29;8.00;99.90
22035;DHT22;11181;51.002;4.356;2023-02-22T00:07:57;8.20;99.90
22035;DHT22;11181;51.002;4.356;2023-02-22T00:10:25;8.40;99.90
22035;DHT22;11181;51.002;4.356;2023-02-22T00:12:54;8.40;99.90
22035;DHT22;11181;51.002;4.356;2023-02-22T00:15:23;8.40;99.90
22035;DHT22;11181;51.002;4.356;2023-02-22T00:17:52;8.30;99.90
22035;DHT22;11181;51.002;4.356;2023-02-22T00:20:20;8.40;99.90
22035;DHT22;11181;51.002;4.356;2023-02-22T00:22:50;8.40;99.90
22035;DHT22;11181;51.002;4.356;2023-02-22T00:25:18;8.20;99.90
22035;DHT22;11181;51.002;4.356;2023-02-22T00:27:46;8.20;99.90
22035;DHT22;11181;51.002;4.356;2023-02-22T00:30:14;8.20;99.90
22035;DHT22;11181;51.002;4.356;2023-02-22T00:32:44;8.20;99.90
22035;DHT22;11181;51.002;4.356;2023-02-22T00:35:11;8.20;99.90
22035;DHT22;11181;51.002;4.356;2023-02-22T00:37:38;8.10;99.90
22035;DHT22;11181;51.002;4.356;2023-02-22T00:40:10;7.80;99.90
22035;DHT22;11181;51.002;4.356;2023-02-22T00:42:37;7.70;99.90
22035;DHT22;11181;51.002;4.356;2023-02-22T00:45:05;7.70;99.90
22035;DHT22;11181;51.002;4.356;2023-02-22T00:47:32;7.70;99.90
22035;DHT22;11181;51.002;4.356;2023-02-22T00:49:59;7.80;99.90
22035;DHT22;11181;51.002;4.356;2023-02-22T00:52:26;7.80;99.90
22035;DHT22;11181;51.002;4.356;2023-02-22T00:54:53;7.80;99.90
22035;DHT22;11181;51.002;4.356;2023-02-22T00:57:23;7.70;99.90
22035;DHT22;11181;51.002;4.356;2023-02-22T00:59:50;7.60;99.90
22035;DHT22;11181;51.002;4.356;2023-02-22T01:02:17;7.70;99.90
22035;DHT22;11181;51.002;4.356;2023-02-22T01:04:44;7.60;99.90
22035;DHT22;11181;51.002;4.356;2023-02-22T01:07:11;7.50;99.90
22035;DHT22;11181;51.002;4.356;2023-02-22T01:09:38;7.50;99.90
22035;DHT22;11181;51.002;4.356;2023-02-22T01:12:06;7.50;99.90
22035;DHT22;11181;51.002;4.356;2023-02-22T01:14:35;7.50;99.90
22035;DHT22;11181;51.002;4.356;2023-02-22T01:17:02;7.50;99.90
22035;DHT22;11181;51.002;4.356;2023-02-22T01:19:29;7.50;99.90
22035;DHT22;11181;51.002;4.356;2023-02-22T01:21:56;7.70;99.90
22035;DHT22;11181;51.002;4.356;2023-02-22T01:24:23;7.70;99.90
22035;DHT22;11181;51.002;4.356;2023-02-22T01:26:51;7.80;99.90
22035;DHT22;11181;51.002;4.356;2023-02-22T01:29:19;7.80;99.90
22035;DHT22;11181;51.002;4.356;2023-02-22T01:31:52;7.80;99.90
22035;DHT22;11181;51.002;4.356;2023-02-22T01:34:20;7.80;99.90
22035;DHT22;11181;51.002;4.356;2023-02-22T01:36:48;7.80;99.90
22035;DHT22;11181;51.002;4.356;2023-02-22T01:39:15;7.80;99.90
22035;DHT22;11181;51.002;4.356;2023-02-22T01:41:43;7.50;99.90
22035;DHT22;11181;51.002;4.356;2023-02-22T01:44:25;7.40;99.90
22035;DHT22;11181;51.002;4.356;2023-02-22T01:46:54;7.40;99.90
22035;DHT22;11181;51.002;4.356;2023-02-22T01:49:23;7.30;99.90
22035;DHT22;11181;51.002;4.356;2023-02-22T01:51:53;7.40;99.90
22035;DHT22;11181;51.002;4.356;2023-02-22T01:54:24;7.30;99.90
22035;DHT22;11181;51.002;4.356;2023-02-22T01:56:55;7.40;99.90
22035;DHT22;11181;51.002;4.356;2023-02-22T01:59:28;7.30;99.90
22035;DHT22;11181;51.002;4.356;2023-02-22T02:01:59;7.40;99.90
22035;DHT22;11181;51.002;4.356;2023-02-22T02:04:27;7.30;99.90
22035;DHT22;11181;51.002;4.356;2023-02-22T02:06:57;7.40;99.90
22035;DHT22;11181;51.002;4.356;2023-02-22T02:09:31;7.30;99.90
22035;DHT22;11181;51.002;4.356;2023-02-22T02:11:59;7.50;99.90
22035;DHT22;11181;51.002;4.356;2023-02-22T02:14:29;7.30;99.90
22035;DHT22;11181;51.002;4.356;2023-02-22T02:16:59;7.30;99.90
22035;DHT22;11181;51.002;4.356;2023-02-22T02:19:38;7.40;99.90
22035;DHT22;11181;51.002;4.356;2023-02-22T02:22:20;7.50;99.90
22035;DHT22;11181;51.002;4.356;2023-02-22T02:25:09;7.50;99.90
22035;DHT22;11181;51.002;4.356;2023-02-22T02:33:42;6.90;99.90
22035;DHT22;11181;51.002;4.356;2023-02-22T02:36:15;7.00;99.90
22035;DHT22;11181;51.002;4.356;2023-02-22T02:38:49;7.00;99.90
22035;DHT22;11181;51.002;4.356;2023-02-22T02:41:24;7.00;99.90
22035;DHT22;11181;51.002;4.356;2023-02-22T02:43:56;7.00;99.90
22035;DHT22;11181;51.002;4.356;2023-02-22T02:46:30;6.90;99.90
22035;DHT22;11181;51.002;4.356;2023-02-22T02:49:03;7.10;99.90
22035;DHT22;11181;51.002;4.356;2023-02-22T02:51:41;7.20;99.90
22035;DHT22;11181;51.002;4.356;2023-02-22T02:54:10;7.40;99.90
22035;DHT22;11181;51.002;4.356;2023-02-22T02:56:39;7.60;99.90
22035;DHT22;11181;51.002;4.356;2023-02-22T02:59:23;7.50;99.90
22035;DHT22;11181;51.002;4.356;2023-02-22T03:02:01;7.40;99.90
22035;DHT22;11181;51.002;4.356;2023-02-22T03:04:43;7.40;99.90
22035;DHT22;11181;51.002;4.356;2023-02-22T03:07:23;7.40;99.90
22035;DHT22;11181;51.002;4.356;2023-02-22T03:10:02;7.50;99.90
22035;DHT22;11181;51.002;4.356;2023-02-22T03:12:40;7.50;99.90
22035;DHT22;11181;51.002;4.356;2023-02-22T03:15:18;7.50;99.90
22035;DHT22;11181;51.002;4.356;2023-02-22T03:17:53;7.40;99.90
22035;DHT22;11181;51.002;4.356;2023-02-22T03:20:27;7.20;99.90
22035;DHT22;11181;51.002;4.356;2023-02-22T03:22:59;7.00;99.90
22035;DHT22;11181;51.002;4.356;2023-02-22T03:25:31;7.00;99.90
22035;DHT22;11181;51.002;4.356;2023-02-22T03:28:03;6.70;99.90
22035;DHT22;11181;51.002;4.356;2023-02-22T03:30:35;6.40;99.90
22035;DHT22;11181;51.002;4.356;2023-02-22T03:33:07;6.20;99.90
22035;DHT22;11181;51.002;4.356;2023-02-22T03:35:39;6.20;99.90
22035;DHT22;11181;51.002;4.356;2023-02-22T03:38:10;6.20;99.90
22035;DHT22;11181;51.002;4.356;2023-02-22T03:40:42;6.30;99.90
22035;DHT22;11181;51.002;4.356;2023-02-22T03:43:13;6.30;99.90
22035;DHT22;11181;51.002;4.356;2023-02-22T03:45:42;6.30;99.90
22035;DHT22;11181;51.002;4.356;2023-02-22T03:48:19;6.50;99.90
22035;DHT22;11181;51.002;4.356;2023-02-22T03:50:50;6.60;99.90
22035;DHT22;11181;51.002;4.356;2023-02-22T03:53:18;6.50;99.90
22035;DHT22;11181;51.002;4.356;2023-02-22T03:55:48;6.50;99.90
22035;DHT22;11181;51.002;4.356;2023-02-22T03:58:18;6.30;99.90
22035;DHT22;11181;51.002;4.356;2023-02-22T04:00:47;6.30;99.90
22035;DHT22;11181;51.002;4.356;2023-02-22T04:03:18;6.20;99.90
22035;DHT22;11181;51.002;4.356;2023-02-22T04:05:45;6.20;99.90
22035;DHT22;11181;51.002;4.356;2023-02-22T04:08:14;6.20;99.90
22035;DHT22;11181;51.002;4.356;2023-02-22T04:10:41;6.40;99.90
22035;DHT22;11181;51.002;4.356;2023-02-22T04:13:08;6.50;99.90
22035;DHT22;11181;51.002;4.356;2023-02-22T04:15:35;6.40;99.90
22035;DHT22;11181;51.002;4.356;2023-02-22T04:18:02;6.30;99.90
22035;DHT22;11181;51.002;4.356;2023-02-22T04:20:30;6.40;99.90
22035;DHT22;11181;51.002;4.356;2023-02-22T04:22:57;6.30;99.90
22035;DHT22;11181;51.002;4.356;2023-02-22T04:25:25;6.30;99.90
22035;DHT22;11181;51.002;4.356;2023-02-22T04:27:52;6.30;99.90
22035;DHT22;11181;51.002;4.356;2023-02-22T04:30:19;6.20;99.90
22035;DHT22;11181;51.002;4.356;2023-02-22T04:32:47;6.30;99.90
22035;DHT22;11181;51.002;4.356;2023-02-22T04:35:14;6.40;99.90
22035;DHT22;11181;51.002;4.356;2023-02-22T04:37:41;6.60;99.90
22035;DHT22;11181;51.002;4.356;2023-02-22T04:40:08;6.50;99.90
22035;DHT22;11181;51.002;4.356;2023-02-22T04:42:37;6.30;99.90
22035;DHT22;11181;51.002;4.356;2023-02-22T04:45:06;6.20;99.90
22035;DHT22;11181;51.002;4.356;2023-02-22T04:47:34;6.30;99.90
22035;DHT22;11181;51.002;4.356;2023-02-22T04:50:01;6.20;99.90
22035;DHT22;11181;51.002;4.356;2023-02-22T04:52:28;6.10;99.90
22035;DHT22;11181;51.002;4.356;2023-02-22T04:54:55;6.20;99.90
22035;DHT22;11181;51.002;4.356;2023-02-22T04:57:22;6.10;99.90
22035;DHT22;11181;51.002;4.356;2023-02-22T04:59:50;6.20;99.90
22035;DHT22;11181;51.002;4.356;2023-02-22T05:02:18;6.10;99.90
22035;DHT22;11181;51.002;4.356;2023-02-22T05:04:45;6.30;99.90
22035;DHT22;11181;51.002;4.356;2023-02-22T05:07:12;6.40;99.90
22035;DHT22;11181;51.002;4.356;2023-02-22T05:09:39;6.30;99.90
22035;DHT22;11181;51.002;4.356;2023-02-22T05:12:06;6.30;99.90
22035;DHT22;11181;51.002;4.356;2023-02-22T05:14:33;6.40;99.90
22035;DHT22;11181;51.002;4.356;2023-02-22T05:17:02;6.40;99.90
22035;DHT22;11181;51.002;4.356;2023-02-22T05:19:29;6.50;99.90
22035;DHT22;11181;51.002;4.356;2023-02-22T05:21:56;6.50;99.90
22035;DHT22;11181;51.002;4.356;2023-02-22T05:24:23;6.60;99.90
22035;DHT22;11181;51.002;4.356;2023-02-22T05:26:50;6.50;99.90
22035;DHT22;11181;51.002;4.356;2023-02-22T05:29:18;6.50;99.90
22035;DHT22;11181;51.002;4.356;2023-02-22T05:31:45;6.50;99.90
22035;DHT22;11181;51.002;4.356;2023-02-22T05:34:13;6.60;99.90
22035;DHT22;11181;51.002;4.356;2023-02-22T05:36:40;6.60;99.90
22035;DHT22;11181;51.002;4.356;2023-02-22T05:39:07;6.70;99.90
22035;DHT22;11181;51.002;4.356;2023-02-22T05:41:34;6.90;99.90
22035;DHT22;11181;51.002;4.356;2023-02-22T05:44:01;6.90;99.90
22035;DHT22;11181;51.002;4.356;2023-02-22T05:46:28;6.90;99.90
22035;DHT22;11181;51.002;4.356;2023-02-22T05:48:55;6.80;99.90
22035;DHT22;11181;51.002;4.356;2023-02-22T05:51:23;6.70;99.90
22035;DHT22;11181;51.002;4.356;2023-02-22T05:53:51;6.70;99.90
22035;DHT22;11181;51.002;4.356;2023-02-22T05:56:22;6.80;99.90
22035;DHT22;11181;51.002;4.356;2023-02-22T05:58:49;6.80;99.90
22035;DHT22;11181;51.002;4.356;2023-02-22T06:01:16;6.90;99.90
22035;DHT22;11181;51.002;4.356;2023-02-22T06:03:46;7.00;99.90
22035;DHT22;11181;51.002;4.356;2023-02-22T06:06:13;7.00;99.90
22035;DHT22;11181;51.002;4.356;2023-02-22T06:08:42;7.00;99.90
22035;DHT22;11181;51.002;4.356;2023-02-22T06:11:09;7.00;99.90
22035;DHT22;11181;51.002;4.356;2023-02-22T06:13:37;6.70;99.90
22035;DHT22;11181;51.002;4.356;2023-02-22T06:16:05;6.60;99.90
22035;DHT22;11181;51.002;4.356;2023-02-22T06:18:32;6.60;99.90
22035;DHT22;11181;51.002;4.356;2023-02-22T06:21:00;6.60;99.90
22035;DHT22;11181;51.002;4.356;2023-02-22T06:23:27;6.60;99.90
22035;DHT22;11181;51.002;4.356;2023-02-22T06:25:56;6.70;99.90
22035;DHT22;11181;51.002;4.356;2023-02-22T06:28:23;6.80;99.90
22035;DHT22;11181;51.002;4.356;2023-02-22T06:30:50;6.80;99.90
22035;DHT22;11181;51.002;4.356;2023-02-22T06:33:17;6.80;99.90
22035;DHT22;11181;51.002;4.356;2023-02-22T06:35:44;6.60;99.90
22035;DHT22;11181;51.002;4.356;2023-02-22T06:38:11;6.50;99.90
22035;DHT22;11181;51.002;4.356;2023-02-22T06:40:45;6.50;99.90
22035;DHT22;11181;51.002;4.356;2023-02-22T06:43:14;6.50;99.90
22035;DHT22;11181;51.002;4.356;2023-02-22T06:45:41;6.50;99.90
22035;DHT22;11181;51.002;4.356;2023-02-22T06:48:08;6.60;99.90
22035;DHT22;11181;51.002;4.356;2023-02-22T06:50:35;6.70;99.90
22035;DHT22;11181;51.002;4.356;2023-02-22T06:53:02;6.90;99.90
22035;DHT22;11181;51.002;4.356;2023-02-22T06:55:30;6.90;99.90
22035;DHT22;11181;51.002;4.356;2023-02-22T06:57:58;6.90;99.90
22035;DHT22;11181;51.002;4.356;2023-02-22T07:00:28;7.10;99.90
22035;DHT22;11181;51.002;4.356;2023-02-22T07:02:56;7.30;99.90
22035;DHT22;11181;51.002;4.356;2023-02-22T07:05:24;7.40;99.90
22035;DHT22;11181;51.002;4.356;2023-02-22T07:07:53;7.50;99.90
22035;DHT22;11181;51.002;4.356;2023-02-22T07:10:24;7.40;99.90
22035;DHT22;11181;51.002;4.356;2023-02-22T07:12:51;7.40;99.90
22035;DHT22;11181;51.002;4.356;2023-02-22T07:15:19;7.40;99.90
22035;DHT22;11181;51.002;4.356;2023-02-22T07:17:49;7.40;99.90
22035;DHT22;11181;51.002;4.356;2023-02-22T07:20:18;7.40;99.90
22035;DHT22;11181;51.002;4.356;2023-02-22T07:22:45;7.40;99.90
22035;DHT22;11181;51.002;4.356;2023-02-22T07:25:12;7.00;99.90
22035;DHT22;11181;51.002;4.356;2023-02-22T07:27:41;6.70;99.90
22035;DHT22;11181;51.002;4.356;2023-02-22T07:30:15;6.60;99.90
22035;DHT22;11181;51.002;4.356;2023-02-22T07:32:42;6.50;99.90
22035;DHT22;11181;51.002;4.356;2023-02-22T07:35:15;6.40;99.90
22035;DHT22;11181;51.002;4.356;2023-02-22T07:37:42;6.60;99.90
22035;DHT22;11181;51.002;4.356;2023-02-22T07:40:10;6.70;99.90
22035;DHT22;11181;51.002;4.356;2023-02-22T07:42:53;6.90;99.90
22035;DHT22;11181;51.002;4.356;2023-02-22T07:45:22;7.00;99.90
22035;DHT22;11181;51.002;4.356;2023-02-22T07:47:50;7.10;99.90
22035;DHT22;11181;51.002;4.356;2023-02-22T07:50:20;7.10;99.90
22035;DHT22;11181;51.002;4.356;2023-02-22T07:52:48;7.20;99.90
22035;DHT22;11181;51.002;4.356;2023-02-22T07:55:17;7.30;99.90
22035;DHT22;11181;51.002;4.356;2023-02-22T07:57:46;7.40;99.90
22035;DHT22;11181;51.002;4.356;2023-02-22T08:00:14;7.60;99.90
22035;DHT22;11181;51.002;4.356;2023-02-22T08:02:41;7.60;99.90
22035;DHT22;11181;51.002;4.356;2023-02-22T08:05:10;7.70;99.90
22035;DHT22;11181;51.002;4.356;2023-02-22T08:07:39;7.70;99.90
22035;DHT22;11181;51.002;4.356;2023-02-22T08:10:08;7.70;99.90
22035;DHT22;11181;51.002;4.356;2023-02-22T08:12:36;7.80;99.90
22035;DHT22;11181;51.002;4.356;2023-02-22T08:15:07;7.70;99.90
22035;DHT22;11181;51.002;4.356;2023-02-22T08:17:34;7.70;99.90
22035;DHT22;11181;51.002;4.356;2023-02-22T08:20:03;7.80;99.90
22035;DHT22;11181;51.002;4.356;2023-02-22T08:22:30;7.90;99.90
22035;DHT22;11181;51.002;4.356;2023-02-22T08:24:58;7.90;99.90
22035;DHT22;11181;51.002;4.356;2023-02-22T08:27:27;8.00;99.90
22035;DHT22;11181;51.002;4.356;2023-02-22T08:29:55;7.90;99.90
22035;DHT22;11181;51.002;4.356;2023-02-22T08:32:22;8.00;99.90
22035;DHT22;11181;51.002;4.356;2023-02-22T08:34:50;8.00;99.90
22035;DHT22;11181;51.002;4.356;2023-02-22T08:37:18;8.10;99.90
22035;DHT22;11181;51.002;4.356;2023-02-22T08:39:45;8.20;99.90
22035;DHT22;11181;51.002;4.356;2023-02-22T08:42:13;8.40;99.90
22035;DHT22;11181;51.002;4.356;2023-02-22T08:44:40;8.50;99.90
22035;DHT22;11181;51.002;4.356;2023-02-22T08:47:08;8.60;99.90
22035;DHT22;11181;51.002;4.356;2023-02-22T08:49:35;8.60;99.90
22035;DHT22;11181;51.002;4.356;2023-02-22T08:52:02;8.70;99.90
22035;DHT22;11181;51.002;4.356;2023-02-22T08:54:29;8.80;99.90
22035;DHT22;11181;51.002;4.356;2023-02-22T08:56:56;8.80;99.90
22035;DHT22;11181;51.002;4.356;2023-02-22T08:59:24;8.90;99.90
22035;DHT22;11181;51.002;4.356;2023-02-22T09:01:51;8.90;99.90
22035;DHT22;11181;51.002;4.356;2023-02-22T09:04:20;9.00;99.90
22035;DHT22;11181;51.002;4.356;2023-02-22T09:06:47;9.10;99.90
22035;DHT22;11181;51.002;4.356;2023-02-22T09:09:18;9.10;99.90
22035;DHT22;11181;51.002;4.356;2023-02-22T09:11:49;9.20;99.90
22035;DHT22;11181;51.002;4.356;2023-02-22T09:14:19;9.30;99.90
22035;DHT22;11181;51.002;4.356;2023-02-22T09:16:47;9.50;99.90
22035;DHT22;11181;51.002;4.356;2023-02-22T09:19:14;9.50;99.90
22035;DHT22;11181;51.002;4.356;2023-02-22T09:21:41;9.60;99.90
22035;DHT22;11181;51.002;4.356;2023-02-22T09:24:08;9.70;99.90
22035;DHT22;11181;51.002;4.356;2023-02-22T09:26:40;9.70;99.90
22035;DHT22;11181;51.002;4.356;2023-02-22T09:29:26;9.80;99.90
22035;DHT22;11181;51.002;4.356;2023-02-22T09:31:56;9.90;99.90
22035;DHT22;11181;51.002;4.356;2023-02-22T09:34:26;10.00;99.90
22035;DHT22;11181;51.002;4.356;2023-02-22T09:37:01;10.10;99.90
22035;DHT22;11181;51.002;4.356;2023-02-22T09:39:29;10.10;99.90
22035;DHT22;11181;51.002;4.356;2023-02-22T09:42:08;10.10;99.90
22035;DHT22;11181;51.002;4.356;2023-02-22T09:44:42;10.10;99.90
22035;DHT22;11181;51.002;4.356;2023-02-22T09:47:16;10.20;99.90
22035;DHT22;11181;51.002;4.356;2023-02-22T09:49:53;10.20;99.90
22035;DHT22;11181;51.002;4.356;2023-02-22T09:52:28;10.40;99.90
22035;DHT22;11181;51.002;4.356;2023-02-22T09:55:07;10.40;99.90
22035;DHT22;11181;51.002;4.356;2023-02-22T09:57:42;10.50;99.90
22035;DHT22;11181;51.002;4.356;2023-02-22T10:00:16;10.60;99.90
22035;DHT22;11181;51.002;4.356;2023-02-22T10:02:50;10.70;99.90
22035;DHT22;11181;51.002;4.356;2023-02-22T10:05:23;10.80;99.90
22035;DHT22;11181;51.002;4.356;2023-02-22T10:07:55;10.90;99.90
22035;DHT22;11181;51.002;4.356;2023-02-22T10:10:31;11.00;99.90
22035;DHT22;11181;51.002;4.356;2023-02-22T10:13:06;11.00;99.90
22035;DHT22;11181;51.002;4.356;2023-02-22T10:15:44;11.10;99.90
22035;DHT22;11181;51.002;4.356;2023-02-22T10:21:49;11.40;99.90
22035;DHT22;11181;51.002;4.356;2023-02-22T10:24:36;11.50;99.90
22035;DHT22;11181;51.002;4.356;2023-02-22T10:27:26;11.70;99.90
22035;DHT22;11181;51.002;4.356;2023-02-22T10:30:09;11.80;99.90
22035;DHT22;11181;51.002;4.356;2023-02-22T10:32:49;11.70;99.90
22035;DHT22;11181;51.002;4.356;2023-02-22T10:35:35;11.70;99.90
22035;DHT22;11181;51.002;4.356;2023-02-22T10:38:15;11.70;99.90
22035;DHT22;11181;51.002;4.356;2023-02-22T10:40:55;11.70;99.90
22035;DHT22;11181;51.002;4.356;2023-02-22T10:43:38;11.70;99.90
22035;DHT22;11181;51.002;4.356;2023-02-22T10:46:14;11.70;99.90
22035;DHT22;11181;51.002;4.356;2023-02-22T10:48:50;11.60;99.90
22035;DHT22;11181;51.002;4.356;2023-02-22T10:51:21;11.80;99.90
22035;DHT22;11181;51.002;4.356;2023-02-22T10:53:58;11.90;99.90
22035;DHT22;11181;51.002;4.356;2023-02-22T10:56:31;12.00;99.90
22035;DHT22;11181;51.002;4.356;2023-02-22T10:58:59;12.00;99.90
22035;DHT22;11181;51.002;4.356;2023-02-22T11:01:35;12.20;99.90
22035;DHT22;11181;51.002;4.356;2023-02-22T11:04:10;12.30;99.90
22035;DHT22;11181;51.002;4.356;2023-02-22T11:06:38;12.30;99.90
22035;DHT22;11181;51.002;4.356;2023-02-22T11:09:10;12.30;99.90
22035;DHT22;11181;51.002;4.356;2023-02-22T11:11:38;12.30;99.90
22035;DHT22;11181;51.002;4.356;2023-02-22T11:14:06;12.30;99.90
22035;DHT22;11181;51.002;4.356;2023-02-22T11:16:37;12.30;99.90
22035;DHT22;11181;51.002;4.356;2023-02-22T11:19:11;12.40;99.90
22035;DHT22;11181;51.002;4.356;2023-02-22T11:21:42;12.40;99.90
22035;DHT22;11181;51.002;4.356;2023-02-22T11:24:12;12.50;99.90
22035;DHT22;11181;51.002;4.356;2023-02-22T11:26:42;12.60;99.90
22035;DHT22;11181;51.002;4.356;2023-02-22T11:29:14;12.60;99.90
22035;DHT22;11181;51.002;4.356;2023-02-22T11:31:45;12.60;99.90
22035;DHT22;11181;51.002;4.356;2023-02-22T11:34:29;12.70;99.90
22035;DHT22;11181;51.002;4.356;2023-02-22T11:37:15;12.70;99.90
22035;DHT22;11181;51.002;4.356;2023-02-22T11:39:45;12.70;99.90
22035;DHT22;11181;51.002;4.356;2023-02-22T11:42:23;12.70;99.90
22035;DHT22;11181;51.002;4.356;2023-02-22T11:45:07;12.70;99.90
22035;DHT22;11181;51.002;4.356;2023-02-22T11:47:35;12.70;99.90
22035;DHT22;11181;51.002;4.356;2023-02-22T11:50:19;12.70;99.90
22035;DHT22;11181;51.002;4.356;2023-02-22T11:52:52;12.70;99.90
22035;DHT22;11181;51.002;4.356;2023-02-22T11:55:26;12.70;99.90
22035;DHT22;11181;51.002;4.356;2023-02-22T11:58:03;12.70;99.90
22035;DHT22;11181;51.002;4.356;2023-02-22T12:00:43;12.60;99.90
22035;DHT22;11181;51.002;4.356;2023-02-22T12:03:31;12.60;99.90
22035;DHT22;11181;51.002;4.356;2023-02-22T12:06:23;12.60;99.90
22035;DHT22;11181;51.002;4.356;2023-02-22T12:09:02;12.70;99.90
22035;DHT22;11181;51.002;4.356;2023-02-22T12:11:38;12.70;99.90
22035;DHT22;11181;51.002;4.356;2023-02-22T12:14:17;12.70;99.90
22035;DHT22;11181;51.002;4.356;2023-02-22T12:17:19;12.90;99.90
22035;DHT22;11181;51.002;4.356;2023-02-22T12:20:03;12.90;99.90
22035;DHT22;11181;51.002;4.356;2023-02-22T12:22:43;12.90;99.90
22035;DHT22;11181;51.002;4.356;2023-02-22T12:25:19;13.00;99.90
22035;DHT22;11181;51.002;4.356;2023-02-22T12:27:56;13.00;99.90
22035;DHT22;11181;51.002;4.356;2023-02-22T12:30:36;13.00;99.90
22035;DHT22;11181;51.002;4.356;2023-02-22T12:33:14;13.00;99.90
22035;DHT22;11181;51.002;4.356;2023-02-22T12:35:58;13.10;99.90
22035;DHT22;11181;51.002;4.356;2023-02-22T12:38:34;13.10;99.90
22035;DHT22;11181;51.002;4.356;2023-02-22T12:41:13;13.20;99.90
22035;DHT22;11181;51.002;4.356;2023-02-22T12:44:16;13.20;99.90
22035;DHT22;11181;51.002;4.356;2023-02-22T12:47:28;13.30;99.90
22035;DHT22;11181;51.002;4.356;2023-02-22T12:50:31;13.20;99.90
22035;DHT22;11181;51.002;4.356;2023-02-22T12:53:18;13.30;99.90
22035;DHT22;11181;51.002;4.356;2023-02-22T12:55:51;13.30;99.90
22035;DHT22;11181;51.002;4.356;2023-02-22T12:58:21;13.30;99.90
22035;DHT22;11181;51.002;4.356;2023-02-22T13:00:57;13.10;99.90
22035;DHT22;11181;51.002;4.356;2023-02-22T13:03:35;12.80;99.90
22035;DHT22;11181;51.002;4.356;2023-02-22T13:09:06;12.80;99.90
22035;DHT22;11181;51.002;4.356;2023-02-22T13:11:40;12.90;99.90
22035;DHT22;11181;51.002;4.356;2023-02-22T13:14:33;12.90;99.90
22035;DHT22;11181;51.002;4.356;2023-02-22T13:17:10;12.90;99.90
22035;DHT22;11181;51.002;4.356;2023-02-22T13:19:51;12.80;99.90
22035;DHT22;11181;51.002;4.356;2023-02-22T13:22:25;12.90;99.90
22035;DHT22;11181;51.002;4.356;2023-02-22T13:25:00;12.90;99.90
22035;DHT22;11181;51.002;4.356;2023-02-22T13:27:34;12.90;99.90
22035;DHT22;11181;51.002;4.356;2023-02-22T13:30:05;12.90;99.90
22035;DHT22;11181;51.002;4.356;2023-02-22T13:33:01;12.90;99.90
22035;DHT22;11181;51.002;4.356;2023-02-22T13:35:40;13.00;99.90
22035;DHT22;11181;51.002;4.356;2023-02-22T13:41:35;12.80;99.90
22035;DHT22;11181;51.002;4.356;2023-02-22T13:44:21;12.80;99.90
22035;DHT22;11181;51.002;4.356;2023-02-22T13:47:27;12.70;99.90
22035;DHT22;11181;51.002;4.356;2023-02-22T13:50:31;12.80;99.90
22035;DHT22;11181;51.002;4.356;2023-02-22T13:53:04;12.80;99.90
22035;DHT22;11181;51.002;4.356;2023-02-22T13:55:35;12.70;99.90
22035;DHT22;11181;51.002;4.356;2023-02-22T13:58:05;12.60;99.90
22035;DHT22;11181;51.002;4.356;2023-02-22T14:00:45;12.50;99.90
22035;DHT22;11181;51.002;4.356;2023-02-22T14:03:31;12.50;99.90
22035;DHT22;11181;51.002;4.356;2023-02-22T14:06:03;12.50;99.90
22035;DHT22;11181;51.002;4.356;2023-02-22T14:08:45;12.50;99.90
22035;DHT22;11181;51.002;4.356;2023-02-22T14:14:22;12.50;99.90
22035;DHT22;11181;51.002;4.356;2023-02-22T14:17:21;12.40;99.90
22035;DHT22;11181;51.002;4.356;2023-02-22T14:20:20;12.40;99.90
22035;DHT22;11181;51.002;4.356;2023-02-22T14:23:32;12.30;99.90
22035;DHT22;11181;51.002;4.356;2023-02-22T14:26:20;12.30;99.90
22035;DHT22;11181;51.002;4.356;2023-02-22T14:29:28;12.20;99.90
22035;DHT22;11181;51.002;4.356;2023-02-22T14:32:30;12.20;99.90
22035;DHT22;11181;51.002;4.356;2023-02-22T14:35:34;12.20;99.90
22035;DHT22;11181;51.002;4.356;2023-02-22T14:42:01;12.10;99.90
22035;DHT22;11181;51.002;4.356;2023-02-22T14:45:02;12.10;99.90
22035;DHT22;11181;51.002;4.356;2023-02-22T14:47:54;12.20;99.90
22035;DHT22;11181;51.002;4.356;2023-02-22T14:50:46;12.20;99.90
22035;DHT22;11181;51.002;4.356;2023-02-22T14:53:49;12.20;99.90
22035;DHT22;11181;51.002;4.356;2023-02-22T14:56:39;12.20;99.90
22035;DHT22;11181;51.002;4.356;2023-02-22T14:59:38;12.30;99.90
22035;DHT22;11181;51.002;4.356;2023-02-22T15:02:37;12.20;99.90
22035;DHT22;11181;51.002;4.356;2023-02-22T15:05:12;12.20;99.90
22035;DHT22;11181;51.002;4.356;2023-02-22T15:07:50;12.30;99.90
22035;DHT22;11181;51.002;4.356;2023-02-22T15:10:22;12.30;99.90
22035;DHT22;11181;51.002;4.356;2023-02-22T15:12:55;12.30;99.90
22035;DHT22;11181;51.002;4.356;2023-02-22T15:15:37;12.20;99.90
22035;DHT22;11181;51.002;4.356;2023-02-22T15:18:16;12.10;99.90
22035;DHT22;11181;51.002;4.356;2023-02-22T15:20:44;12.10;99.90
22035;DHT22;11181;51.002;4.356;2023-02-22T15:23:14;12.00;99.90
22035;DHT22;11181;51.002;4.356;2023-02-22T15:25:46;11.90;99.90
22035;DHT22;11181;51.002;4.356;2023-02-22T15:28:16;11.80;99.90
22035;DHT22;11181;51.002;4.356;2023-02-22T15:30:45;11.80;99.90
22035;DHT22;11181;51.002;4.356;2023-02-22T15:33:14;11.80;99.90
22035;DHT22;11181;51.002;4.356;2023-02-22T15:35:42;11.80;99.90
22035;DHT22;11181;51.002;4.356;2023-02-22T15:38:19;11.80;99.90
22035;DHT22;11181;51.002;4.356;2023-02-22T15:40:57;11.70;99.90
22035;DHT22;11181;51.002;4.356;2023-02-22T15:43:25;11.60;99.90
22035;DHT22;11181;51.002;4.356;2023-02-22T15:45:56;11.50;99.90
22035;DHT22;11181;51.002;4.356;2023-02-22T15:48:24;11.50;99.90
22035;DHT22;11181;51.002;4.356;2023-02-22T15:51:06;11.50;99.90
22035;DHT22;11181;51.002;4.356;2023-02-22T15:53:41;11.60;99.90
22035;DHT22;11181;51.002;4.356;2023-02-22T15:56:12;11.60;99.90
22035;DHT22;11181;51.002;4.356;2023-02-22T15:58:40;11.60;99.90
22035;DHT22;11181;51.002;4.356;2023-02-22T16:01:12;11.50;99.90
22035;DHT22;11181;51.002;4.356;2023-02-22T16:03:43;11.60;99.90
22035;DHT22;11181;51.002;4.356;2023-02-22T16:06:14;11.60;99.90
22035;DHT22;11181;51.002;4.356;2023-02-22T16:08:45;11.70;99.90
22035;DHT22;11181;51.002;4.356;2023-02-22T16:11:15;11.70;99.90
22035;DHT22;11181;51.002;4.356;2023-02-22T16:13:52;11.70;99.90
22035;DHT22;11181;51.002;4.356;2023-02-22T16:16:27;11.80;99.90
22035;DHT22;11181;51.002;4.356;2023-02-22T16:19:26;11.70;99.90
22035;DHT22;11181;51.002;4.356;2023-02-22T16:21:54;11.80;99.90
22035;DHT22;11181;51.002;4.356;2023-02-22T16:24:26;11.70;99.90
22035;DHT22;11181;51.002;4.356;2023-02-22T16:27:06;11.70;99.90
22035;DHT22;11181;51.002;4.356;2023-02-22T16:29:41;11.70;99.90
22035;DHT22;11181;51.002;4.356;2023-02-22T16:32:10;11.80;99.90
22035;DHT22;11181;51.002;4.356;2023-02-22T16:34:39;11.80;99.90
22035;DHT22;11181;51.002;4.356;2023-02-22T16:37:18;11.90;99.90
22035;DHT22;11181;51.002;4.356;2023-02-22T16:39:47;11.90;99.90